Time;durP1;ratioP1;P1;durP2;ratioP2;P2;SDS_P1;SDS_P2;PMS_P1;PMS_P2;Temp;Humidity;BMP_temperature;BMP_pressure;BME280_temperature;BME280_humidity;BME280_pressure;Samples;Min_cycle;Max_cycle;Signal;HPM_P1;HPM_P2
2022/08/25 00:02:31;;;;;;;19.80;7.97;;;;;;;;;;6169462;28;20062;-87
2022/08/25 00:05:31;;;;;;;22.42;9.00;;;;;;;;;;6166143;28;20054;-87
2022/08/25 00:08:33;;;;;;;26.03;9.27;;;;;;;;;;6148646;28;20023;-88
2022/08/25 00:11:35;;;;;;;15.45;8.55;;;;;;;;;;6148758;28;20023;-87
2022/08/25 00:14:36;;;;;;;23.95;8.27;;;;;;;;;;6167378;28;20027;-88
2022/08/25 00:17:36;;;;;;;23.63;8.80;;;;;;;;;;6167437;28;20102;-87
2022/08/25 00:20:36;;;;;;;20.73;8.90;;;;;;;;;;6170170;28;20050;-88
2022/08/25 00:23:37;;;;;;;20.47;9.07;;;;;;;;;;6170421;28;20019;-87
2022/08/25 00:26:39;;;;;;;17.10;8.47;;;;;;;;;;6153075;28;20022;-88
2022/08/25 00:29:39;;;;;;;21.10;8.70;;;;;;;;;;6171780;28;20085;-88
2022/08/25 00:32:39;;;;;;;21.37;8.30;;;;;;;;;;6171185;28;20031;-87
2022/08/25 00:35:41;;;;;;;26.17;8.27;;;;;;;;;;6170872;28;20073;-87
2022/08/25 00:38:42;;;;;;;21.02;8.98;;;;;;;;;;6153240;28;20288;-88
2022/08/25 00:41:42;;;;;;;;;;;;;;;;;;6154783;28;20053;-88
2022/08/25 00:44:43;;;;;;;22.42;8.75;;;;;;;;;;6175102;28;19910;-87
2022/08/25 00:47:43;;;;;;;16.70;7.33;;;;;;;;;;6157395;28;20485;-88
2022/08/25 00:50:43;;;;;;;21.93;9.10;;;;;;;;;;6174537;28;20023;-88
2022/08/25 00:53:43;;;;;;;22.50;8.87;;;;;;;;;;6174730;28;20023;-88
2022/08/25 00:56:44;;;;;;;24.07;9.37;;;;;;;;;;6172000;28;20038;-88
2022/08/25 00:59:44;;;;;;;22.50;8.67;;;;;;;;;;6174952;28;20046;-88
2022/08/25 01:02:44;;;;;;;16.17;7.37;;;;;;;;;;6156126;28;20027;-87
2022/08/25 01:05:45;;;;;;;15.67;9.27;;;;;;;;;;6174476;28;20272;-87
2022/08/25 01:08:46;;;;;;;23.87;8.50;;;;;;;;;;6151485;28;20019;-88
2022/08/25 01:11:46;;;;;;;21.97;8.90;;;;;;;;;;6173460;28;20011;-87
2022/08/25 01:14:47;;;;;;;17.33;7.80;;;;;;;;;;6170269;28;20509;-88
2022/08/25 01:17:49;;;;;;;22.35;8.18;;;;;;;;;;6156255;28;20042;-88
2022/08/25 01:20:54;;;;;;;22.67;9.30;;;;;;;;;;6173840;28;20050;-88
2022/08/25 01:23:57;;;;;;;21.48;8.82;;;;;;;;;;6155767;28;20094;-87
2022/08/25 01:26:57;;;;;;;20.20;8.52;;;;;;;;;;6174028;28;20011;-88
2022/08/25 01:29:57;;;;;;;17.70;8.50;;;;;;;;;;6155721;28;20098;-87
2022/08/25 01:32:57;;;;;;;19.17;8.83;;;;;;;;;;6173773;28;20364;-88
2022/08/25 01:35:58;;;;;;;13.20;8.67;;;;;;;;;;6173985;28;20077;-88
2022/08/25 01:38:58;;;;;;;20.70;8.37;;;;;;;;;;6172940;28;20029;-87
2022/08/25 01:42:01;;;;;;;16.57;8.60;;;;;;;;;;6155025;28;20047;-87
2022/08/25 01:45:03;;;;;;;20.45;8.85;;;;;;;;;;6169996;28;20022;-87
2022/08/25 01:48:03;;;;;;;26.00;8.13;;;;;;;;;;6148097;28;20158;-88
2022/08/25 01:51:04;;;;;;;19.23;8.17;;;;;;;;;;6173425;28;20034;-88
2022/08/25 01:54:04;;;;;;;20.60;7.90;;;;;;;;;;6171411;28;20446;-87
2022/08/25 01:57:05;;;;;;;17.47;8.63;;;;;;;;;;6173791;28;20426;-88
2022/08/25 02:00:06;;;;;;;22.73;7.93;;;;;;;;;;6173536;28;20466;-88
2022/08/25 02:03:06;;;;;;;16.90;7.57;;;;;;;;;;6168489;28;20031;-87
2022/08/25 02:06:07;;;;;;;21.73;9.10;;;;;;;;;;6155808;28;20021;-88
2022/08/25 02:09:09;;;;;;;20.00;7.77;;;;;;;;;;6169318;28;20011;-88
2022/08/25 02:12:09;;;;;;;18.52;8.43;;;;;;;;;;6151207;28;20019;-88
2022/08/25 02:15:10;;;;;;;16.10;8.13;;;;;;;;;;6169708;28;20066;-87
2022/08/25 02:18:10;;;;;;;16.37;7.50;;;;;;;;;;6170293;28;20022;-87
2022/08/25 02:21:10;;;;;;;19.03;9.37;;;;;;;;;;6172512;28;20050;-88
2022/08/25 02:24:11;;;;;;;20.67;9.23;;;;;;;;;;6154156;28;20149;-87
2022/08/25 02:27:11;;;;;;;15.25;9.57;;;;;;;;;;6150824;28;20011;-88
2022/08/25 02:30:13;;;;;;;18.37;8.77;;;;;;;;;;6169230;28;20525;-87
2022/08/25 02:33:13;;;;;;;20.27;8.88;;;;;;;;;;6169890;28;20022;-87
2022/08/25 02:36:13;;;;;;;16.30;8.30;;;;;;;;;;6169937;28;20050;-87
2022/08/25 02:39:14;;;;;;;21.27;8.97;;;;;;;;;;6154035;28;20093;-87
2022/08/25 02:42:14;;;;;;;19.77;8.87;;;;;;;;;;6171597;28;20027;-87
2022/08/25 02:45:14;;;;;;;16.67;8.80;;;;;;;;;;6154298;28;20049;-87
2022/08/25 02:48:15;;;;;;;22.37;8.90;;;;;;;;;;6168216;28;20011;-87
2022/08/25 02:51:15;;;;;;;17.60;9.70;;;;;;;;;;6171303;28;20027;-87
2022/08/25 02:54:15;;;;;;;16.93;9.10;;;;;;;;;;6171596;28;20490;-88
2022/08/25 02:57:16;;;;;;;21.00;9.95;;;;;;;;;;6153961;28;20023;-87
2022/08/25 03:00:17;;;;;;;20.88;8.80;;;;;;;;;;6171001;28;20018;-88
2022/08/25 03:03:18;;;;;;;15.50;8.27;;;;;;;;;;6171680;28;20462;-88
2022/08/25 03:06:21;;;;;;;14.80;8.53;;;;;;;;;;6153466;28;20023;-87
2022/08/25 03:09:21;;;;;;;23.63;9.13;;;;;;;;;;6148999;28;20105;-87
2022/08/25 03:12:22;;;;;;;15.27;8.07;;;;;;;;;;6151623;28;20023;-87
2022/08/25 03:15:24;;;;;;;16.42;9.45;;;;;;;;;;6162561;28;20023;-87
2022/08/25 03:18:25;;;;;;;18.85;9.35;;;;;;;;;;6168178;28;20061;-88
2022/08/25 03:21:25;;;;;;;17.60;9.00;;;;;;;;;;6125374;29;20047;-87
2022/08/25 03:24:26;;;;;;;22.07;8.90;;;;;;;;;;6124863;29;20114;-87
2022/08/25 03:27:29;;;;;;;20.40;8.98;;;;;;;;;;6122782;29;20090;-88
2022/08/25 03:30:29;;;;;;;24.05;9.98;;;;;;;;;;6118557;29;20419;-87
2022/08/25 03:33:30;;;;;;;22.73;9.83;;;;;;;;;;6121489;29;20035;-87
2022/08/25 03:36:30;;;;;;;22.13;9.00;;;;;;;;;;6118394;29;20348;-88
2022/08/25 03:39:30;;;;;;;26.10;10.73;;;;;;;;;;6118731;29;20020;-87
2022/08/25 03:42:31;;;;;;;19.70;8.97;;;;;;;;;;6125209;29;20008;-88
2022/08/25 03:45:31;;;;;;;14.90;7.77;;;;;;;;;;6124105;29;20444;-87
2022/08/25 03:48:31;;;;;;;15.80;7.20;;;;;;;;;;6122162;29;20440;-88
2022/08/25 03:51:33;;;;;;;10.70;6.63;;;;;;;;;;6122183;29;20039;-87
2022/08/25 03:54:33;;;;;;;;;;;;;;;;;;6122663;29;20066;-87
2022/08/25 03:57:33;;;;;;;12.85;5.97;;;;;;;;;;6127692;29;19906;-87
2022/08/25 04:00:34;;;;;;;16.90;6.97;;;;;;;;;;6120022;29;20024;-88
2022/08/25 04:03:34;;;;;;;15.17;7.50;;;;;;;;;;6122006;29;20020;-87
2022/08/25 04:06:35;;;;;;;11.23;7.03;;;;;;;;;;6121521;29;20439;-87
2022/08/25 04:09:35;;;;;;;19.00;7.43;;;;;;;;;;6121611;29;20094;-87
2022/08/25 04:12:37;;;;;;;13.32;7.47;;;;;;;;;;6116161;29;20063;-88
2022/08/25 04:15:40;;;;;;;21.23;7.67;;;;;;;;;;6109289;29;20032;-88
2022/08/25 04:18:41;;;;;;;17.38;7.55;;;;;;;;;;6125857;29;20031;-87
2022/08/25 04:21:42;;;;;;;13.57;7.57;;;;;;;;;;6169514;28;20059;-87
2022/08/25 04:24:42;;;;;;;18.53;8.30;;;;;;;;;;6157608;28;20034;-88
2022/08/25 04:27:42;;;;;;;14.80;7.67;;;;;;;;;;6174950;28;20026;-87
2022/08/25 04:30:42;;;;;;;13.45;7.38;;;;;;;;;;6158064;28;20462;-87
2022/08/25 04:33:43;;;;;;;17.77;8.33;;;;;;;;;;6173726;28;20038;-87
2022/08/25 04:36:43;;;;;;;17.83;8.37;;;;;;;;;;6157484;28;20007;-87
2022/08/25 04:39:43;;;;;;;16.77;8.40;;;;;;;;;;6175054;28;20537;-88
2022/08/25 04:42:43;;;;;;;20.67;9.10;;;;;;;;;;6174119;28;20122;-88
2022/08/25 04:45:44;;;;;;;14.27;8.90;;;;;;;;;;6169759;28;20019;-87
2022/08/25 04:48:44;;;;;;;17.50;9.10;;;;;;;;;;6173724;28;20085;-87
2022/08/25 04:51:45;;;;;;;22.47;8.77;;;;;;;;;;6173360;28;20427;-87
2022/08/25 04:54:45;;;;;;;24.40;8.43;;;;;;;;;;6169425;28;20203;-87
2022/08/25 04:57:46;;;;;;;26.00;8.63;;;;;;;;;;6167099;28;20034;-87
2022/08/25 05:00:46;;;;;;;14.77;7.93;;;;;;;;;;6171309;28;20023;-88
2022/08/25 05:03:47;;;;;;;21.73;9.20;;;;;;;;;;6156814;28;20355;-88
2022/08/25 05:06:47;;;;;;;15.98;8.35;;;;;;;;;;6173534;28;20108;-88
2022/08/25 05:09:48;;;;;;;24.13;8.40;;;;;;;;;;6156739;28;20479;-88
2022/08/25 05:12:48;;;;;;;20.02;9.20;;;;;;;;;;6156384;28;20386;-88
2022/08/25 05:15:56;;;;;;;19.13;8.27;;;;;;;;;;6154414;28;20089;-88
2022/08/25 05:18:56;;;;;;;15.77;7.35;;;;;;;;;;6155237;28;20050;-87
2022/08/25 05:21:56;;;;;;;14.83;7.90;;;;;;;;;;6176754;28;20037;-87
2022/08/25 05:24:57;;;;;;;16.63;7.27;;;;;;;;;;6161629;28;20164;-87
2022/08/25 05:27:57;;;;;;;15.67;8.40;;;;;;;;;;6180954;28;20046;-87
2022/08/25 05:30:58;;;;;;;14.63;7.57;;;;;;;;;;6180310;28;20022;-87
2022/08/25 05:33:59;;;;;;;19.13;8.02;;;;;;;;;;6165435;28;20014;-87
2022/08/25 05:37:02;;;;;;;21.70;7.07;;;;;;;;;;6174340;28;20019;-87
2022/08/25 05:40:03;;;;;;;20.98;8.20;;;;;;;;;;6160465;28;20022;-87
2022/08/25 05:43:03;;;;;;;18.38;7.40;;;;;;;;;;6180583;28;20022;-87
2022/08/25 05:46:04;;;;;;;21.13;7.63;;;;;;;;;;6176647;28;20015;-87
2022/08/25 05:49:05;;;;;;;30.00;8.93;;;;;;;;;;6159548;28;20024;-87
2022/08/25 05:52:05;;;;;;;26.73;7.60;;;;;;;;;;6152498;28;20027;-87
2022/08/25 05:55:06;;;;;;;25.10;8.63;;;;;;;;;;6176893;28;20030;-87
2022/08/25 05:58:06;;;;;;;23.10;8.57;;;;;;;;;;6162710;28;20035;-87
2022/08/25 06:04:26;;;;;;;28.27;7.38;;;;;;;;;;6174065;28;20023;-87
2022/08/25 06:07:26;;;;;;;31.35;8.63;;;;;;;;;;6143307;28;20089;-86
2022/08/25 06:10:26;;;;;;;;;;;;;;;;;;6161403;28;20023;-87
2022/08/25 06:13:27;;;;;;;34.60;9.80;;;;;;;;;;6163280;28;19928;-87
2022/08/25 06:16:27;;;;;;;;;;;;;;;;;;6164589;28;20069;-87
2022/08/25 06:19:27;;;;;;;29.50;9.00;;;;;;;;;;6176966;28;19936;-87
2022/08/25 06:22:27;;;;;;;32.57;11.33;;;;;;;;;;6169986;28;20050;-87
2022/08/25 06:25:31;;;;;;;36.57;12.23;;;;;;;;;;6157032;28;20142;-87
2022/08/25 06:28:31;;;;;;;32.03;10.75;;;;;;;;;;6174592;28;20053;-87
2022/08/25 06:31:31;;;;;;;33.73;10.47;;;;;;;;;;6164557;28;20026;-87
2022/08/25 06:34:32;;;;;;;32.33;10.68;;;;;;;;;;6157351;28;20027;-88
2022/08/25 06:37:33;;;;;;;36.08;12.88;;;;;;;;;;6159385;28;20038;-88
2022/08/25 06:40:33;;;;;;;36.22;11.05;;;;;;;;;;6169049;28;20022;-88
2022/08/25 06:43:34;;;;;;;31.90;11.23;;;;;;;;;;6156700;28;20593;-87
2022/08/25 06:46:34;;;;;;;29.87;10.20;;;;;;;;;;6159593;28;20250;-88
2022/08/25 06:49:34;;;;;;;36.57;10.57;;;;;;;;;;6159228;28;20266;-88
2022/08/25 06:52:35;;;;;;;34.95;11.57;;;;;;;;;;6152958;28;20019;-88
2022/08/25 06:55:35;;;;;;;27.67;9.65;;;;;;;;;;6159071;28;20105;-87
2022/08/25 06:58:36;;;;;;;29.30;11.18;;;;;;;;;;6170991;28;20023;-87
2022/08/25 07:01:36;;;;;;;40.08;9.10;;;;;;;;;;6161731;28;20011;-88
2022/08/25 07:04:36;;;;;;;29.50;9.10;;;;;;;;;;6146786;28;20081;-87
2022/08/25 07:07:36;;;;;;;34.97;9.20;;;;;;;;;;6152057;28;20479;-88
2022/08/25 07:10:37;;;;;;;29.23;7.87;;;;;;;;;;6149488;28;20471;-88
2022/08/25 07:13:37;;;;;;;34.23;9.07;;;;;;;;;;6152572;28;20022;-88
2022/08/25 07:16:38;;;;;;;25.13;6.93;;;;;;;;;;6171428;28;20042;-88
2022/08/25 07:19:38;;;;;;;29.23;8.20;;;;;;;;;;6150469;28;20042;-88
2022/08/25 07:22:39;;;;;;;30.80;7.63;;;;;;;;;;6171266;28;20110;-88
2022/08/25 07:25:39;;;;;;;27.92;7.18;;;;;;;;;;6156014;28;20050;-88
2022/08/25 07:28:41;;;;;;;35.13;6.40;;;;;;;;;;6153986;28;20021;-88
2022/08/25 07:31:41;;;;;;;25.90;5.90;;;;;;;;;;6163263;28;20030;-88
2022/08/25 07:38:00;;;;;;;25.13;6.53;;;;;;;;;;6170739;28;20023;-88
2022/08/25 07:41:02;;;;;;;31.30;5.80;;;;;;;;;;6165713;28;20053;-88
2022/08/25 07:44:03;;;;;;;34.05;6.20;;;;;;;;;;6149861;28;20254;-88
2022/08/25 07:47:03;;;;;;;34.88;7.80;;;;;;;;;;6153745;28;20023;-87
2022/08/25 07:50:05;;;;;;;23.38;5.65;;;;;;;;;;6172609;28;20027;-87
2022/08/25 07:53:05;;;;;;;33.08;7.22;;;;;;;;;;6173476;28;20034;-88
2022/08/25 07:56:14;;;;;;;26.33;6.27;;;;;;;;;;6173379;28;20023;-88
2022/08/25 07:59:14;;;;;;;23.55;5.85;;;;;;;;;;6151054;28;20030;-87
2022/08/25 08:02:14;;;;;;;28.33;7.53;;;;;;;;;;6149445;28;20505;-88
2022/08/25 08:05:14;;;;;;;28.63;6.07;;;;;;;;;;6170892;28;20065;-88
2022/08/25 08:08:15;;;;;;;31.87;7.50;;;;;;;;;;6156260;28;20467;-87
2022/08/25 08:11:17;;;;;;;39.47;10.03;;;;;;;;;;6155617;28;20026;-87
2022/08/25 08:14:17;;;;;;;24.73;8.00;;;;;;;;;;6173027;28;20262;-88
2022/08/25 08:17:18;;;;;;;38.35;9.55;;;;;;;;;;6174865;28;20057;-87
2022/08/25 08:20:19;;;;;;;27.25;8.70;;;;;;;;;;6163434;28;20172;-87
2022/08/25 08:23:19;;;;;;;37.90;7.35;;;;;;;;;;6170199;28;20019;-87
2022/08/25 08:26:20;;;;;;;30.65;7.80;;;;;;;;;;6172062;28;20078;-88
2022/08/25 08:29:21;;;;;;;29.65;7.07;;;;;;;;;;6168955;28;20387;-88
2022/08/25 08:32:22;;;;;;;34.65;9.02;;;;;;;;;;6169940;28;20159;-88
2022/08/25 08:35:23;;;;;;;35.30;8.07;;;;;;;;;;6142045;28;20031;-88
2022/08/25 08:38:23;;;;;;;42.15;8.68;;;;;;;;;;6173726;28;20031;-88
2022/08/25 08:44:46;;;;;;;33.05;7.75;;;;;;;;;;6172738;28;20022;-88
2022/08/25 08:47:49;;;;;;;39.22;7.65;;;;;;;;;;6172709;28;20015;-88
2022/08/25 08:51:03;;;;;;;26.40;7.65;;;;;;;;;;6173595;28;20031;-88
2022/08/25 08:54:17;;;;;;;32.13;8.35;;;;;;;;;;6174167;28;20030;-87
2022/08/25 08:57:21;;;;;;;27.13;8.13;;;;;;;;;;6150088;28;20019;-88
2022/08/25 09:00:21;;;;;;;28.90;8.02;;;;;;;;;;6173515;28;20051;-88
2022/08/25 09:03:33;;;;;;;29.90;6.60;;;;;;;;;;6173155;28;20023;-88
2022/08/25 09:06:43;;;;;;;32.90;8.65;;;;;;;;;;6174271;28;20698;-88
2022/08/25 09:09:44;;;;;;;36.13;7.57;;;;;;;;;;6173554;28;20580;-87
2022/08/25 09:12:47;;;;;;;27.30;6.55;;;;;;;;;;6170879;28;20027;-88
2022/08/25 09:19:40;;;;;;;35.33;7.85;;;;;;;;;;6172935;28;20047;-87
2022/08/25 09:22:51;;;;;;;38.38;8.65;;;;;;;;;;6168172;28;20073;-87
2022/08/25 09:25:51;;;;;;;;;;;;;;;;;;6169412;28;20097;-88
2022/08/25 09:28:58;;;;;;;23.90;7.67;;;;;;;;;;6165287;28;19911;-88
2022/08/25 09:31:59;;;;;;;44.05;9.73;;;;;;;;;;6152397;28;20774;-87
2022/08/25 09:35:00;;;;;;;29.65;7.90;;;;;;;;;;6164887;28;20026;-87
2022/08/25 09:38:01;;;;;;;43.85;8.77;;;;;;;;;;6147199;28;20023;-87
2022/08/25 09:41:02;;;;;;;34.58;8.38;;;;;;;;;;6151820;28;20050;-87
2022/08/25 09:44:02;;;;;;;32.53;9.02;;;;;;;;;;6149218;28;20023;-87
2022/08/25 09:47:04;;;;;;;29.53;8.00;;;;;;;;;;6163936;28;20390;-87
2022/08/25 09:50:05;;;;;;;28.98;9.38;;;;;;;;;;6166791;28;20054;-88
2022/08/25 09:53:10;;;;;;;33.13;7.30;;;;;;;;;;6149008;28;20035;-87
2022/08/25 09:56:11;;;;;;;29.00;7.55;;;;;;;;;;6164167;28;20026;-87
2022/08/25 09:59:27;;;;;;;31.02;7.03;;;;;;;;;;6160766;28;20061;-87
2022/08/25 10:02:28;;;;;;;26.67;7.00;;;;;;;;;;6154800;28;20494;-87
2022/08/25 10:05:33;;;;;;;19.40;5.63;;;;;;;;;;6140333;28;20019;-88
2022/08/25 10:08:34;;;;;;;30.73;7.30;;;;;;;;;;6165809;28;20807;-88
2022/08/25 10:11:37;;;;;;;26.17;7.03;;;;;;;;;;6149406;28;20038;-87
2022/08/25 10:14:39;;;;;;;27.27;6.32;;;;;;;;;;6154770;28;20023;-87
2022/08/25 10:17:40;;;;;;;26.45;6.35;;;;;;;;;;6169791;28;20046;-87
2022/08/25 10:20:40;;;;;;;28.77;6.97;;;;;;;;;;6168083;28;20051;-87
2022/08/25 10:23:48;;;;;;;24.50;6.07;;;;;;;;;;6169636;28;20105;-88
2022/08/25 10:26:54;;;;;;;28.75;5.88;;;;;;;;;;6172711;28;20522;-87
2022/08/25 10:30:03;;;;;;;29.15;6.97;;;;;;;;;;6164491;28;20029;-88
2022/08/25 10:33:22;;;;;;;26.83;6.88;;;;;;;;;;6148959;28;20055;-87
2022/08/25 10:36:42;;;;;;;30.30;6.28;;;;;;;;;;6151954;28;20159;-87
2022/08/25 10:39:44;;;;;;;30.88;5.80;;;;;;;;;;6110540;28;20031;-87
2022/08/25 10:42:56;;;;;;;24.67;6.82;;;;;;;;;;6161024;28;20416;-87
2022/08/25 10:46:12;;;;;;;27.23;6.07;;;;;;;;;;6162067;28;20395;-87
2022/08/25 10:49:17;;;;;;;25.35;6.07;;;;;;;;;;6160378;28;20058;-88
2022/08/25 10:52:25;;;;;;;29.63;5.65;;;;;;;;;;6143903;28;20038;-88
2022/08/25 10:55:49;;;;;;;25.65;6.15;;;;;;;;;;6148055;28;20041;-87
2022/08/25 10:58:49;;;;;;;29.98;7.35;;;;;;;;;;6119017;28;20065;-88
2022/08/25 11:02:10;;;;;;;27.67;7.57;;;;;;;;;;6171484;28;20367;-88
2022/08/25 11:05:25;;;;;;;41.38;7.22;;;;;;;;;;6173032;28;20022;-88
2022/08/25 11:08:36;;;;;;;24.77;5.68;;;;;;;;;;6171843;28;20076;-88
2022/08/25 11:11:48;;;;;;;24.58;6.32;;;;;;;;;;6154521;28;20450;-88
2022/08/25 11:14:51;;;;;;;27.05;6.60;;;;;;;;;;6167004;28;20534;-87
2022/08/25 11:17:51;;;;;;;30.23;6.50;;;;;;;;;;6165456;28;20441;-87
2022/08/25 11:21:01;;;;;;;30.80;5.97;;;;;;;;;;6170677;28;20053;-88
2022/08/25 11:24:15;;;;;;;18.52;6.25;;;;;;;;;;6169940;28;20565;-88
2022/08/25 11:27:23;;;;;;;31.88;6.65;;;;;;;;;;6152359;28;20031;-88
2022/08/25 11:30:23;;;;;;;25.35;6.40;;;;;;;;;;6154364;28;20430;-88
2022/08/25 11:33:24;;;;;;;37.90;6.47;;;;;;;;;;6171459;28;20082;-88
2022/08/25 11:36:30;;;;;;;25.50;6.72;;;;;;;;;;6172482;28;20062;-88
2022/08/25 11:39:36;;;;;;;28.30;6.20;;;;;;;;;;6171640;28;20027;-88
2022/08/25 11:42:47;;;;;;;18.50;5.72;;;;;;;;;;6167061;28;20097;-88
2022/08/25 11:46:00;;;;;;;21.73;6.85;;;;;;;;;;6170766;28;20018;-88
2022/08/25 11:49:20;;;;;;;19.92;6.38;;;;;;;;;;6154057;28;20044;-88
2022/08/25 11:52:32;;;;;;;23.25;5.50;;;;;;;;;;6152199;28;20030;-88
2022/08/25 11:55:52;;;;;;;25.30;6.25;;;;;;;;;;6164755;28;20559;-87
2022/08/25 11:58:52;;;;;;;26.48;5.63;;;;;;;;;;6154802;28;20487;-88
2022/08/25 12:01:53;;;;;;;26.13;6.13;;;;;;;;;;6168809;28;20038;-88
2022/08/25 12:04:54;;;;;;;25.03;6.67;;;;;;;;;;6145919;28;20057;-88
2022/08/25 12:11:35;;;;;;;23.50;6.50;;;;;;;;;;6171396;28;22390;-88
2022/08/25 12:14:40;;;;;;;21.15;5.45;;;;;;;;;;6152880;28;20402;-87
2022/08/25 12:17:40;;;;;;;25.50;6.25;;;;;;;;;;6155757;28;20030;-88
2022/08/25 12:21:01;;;;;;;20.60;5.88;;;;;;;;;;6144544;28;20046;-88
2022/08/25 12:24:01;;;;;;;32.10;6.57;;;;;;;;;;6135821;28;20037;-88
2022/08/25 12:27:02;;;;;;;23.45;6.32;;;;;;;;;;6167502;28;20416;-88
2022/08/25 12:30:24;;;;;;;24.00;5.68;;;;;;;;;;6159966;28;20051;-88
2022/08/25 12:33:35;;;;;;;25.15;5.97;;;;;;;;;;6162134;28;20019;-88
2022/08/25 12:36:35;;;;;;;26.02;7.75;;;;;;;;;;6160930;28;20022;-88
2022/08/25 12:39:41;;;;;;;25.10;6.17;;;;;;;;;;6165602;28;20479;-88
2022/08/25 12:42:44;;;;;;;29.25;6.85;;;;;;;;;;6144310;28;20027;-88
2022/08/25 12:45:49;;;;;;;23.25;5.22;;;;;;;;;;6159687;28;20023;-88
2022/08/25 12:49:00;;;;;;;18.30;4.80;;;;;;;;;;6168913;28;20022;-88
2022/08/25 12:52:03;;;;;;;30.13;6.13;;;;;;;;;;6163471;28;20034;-88
2022/08/25 12:55:04;;;;;;;23.83;5.72;;;;;;;;;;6147068;28;20033;-88
2022/08/25 12:58:05;;;;;;;20.73;5.38;;;;;;;;;;6159752;28;20062;-88
2022/08/25 13:01:12;;;;;;;22.20;6.32;;;;;;;;;;6168127;28;20030;-88
2022/08/25 13:04:25;;;;;;;27.83;6.38;;;;;;;;;;6164278;28;20023;-88
2022/08/25 13:07:42;;;;;;;19.60;5.40;;;;;;;;;;6161950;28;20019;-88
2022/08/25 13:10:42;;;;;;;25.50;5.35;;;;;;;;;;6167043;28;20074;-88
2022/08/25 13:13:52;;;;;;;24.27;5.70;;;;;;;;;;6148471;28;20039;-87
2022/08/25 13:16:53;;;;;;;21.80;4.90;;;;;;;;;;6161507;28;20439;-87
2022/08/25 13:20:09;;;;;;;30.25;6.22;;;;;;;;;;6143263;28;20059;-87
2022/08/25 13:23:09;;;;;;;19.13;4.90;;;;;;;;;;6160547;28;20050;-87
2022/08/25 13:26:14;;;;;;;22.67;5.33;;;;;;;;;;6164379;28;20047;-87
2022/08/25 13:29:31;;;;;;;23.27;5.88;;;;;;;;;;6163984;28;20022;-87
2022/08/25 13:32:33;;;;;;;25.90;6.07;;;;;;;;;;6158994;28;20026;-88
2022/08/25 13:35:33;;;;;;;22.48;5.35;;;;;;;;;;6142685;28;20390;-88
2022/08/25 13:38:33;;;;;;;25.63;6.60;;;;;;;;;;6160350;28;20031;-88
2022/08/25 13:41:33;;;;;;;23.33;5.70;;;;;;;;;;6146032;28;20023;-88
2022/08/25 13:44:35;;;;;;;25.43;4.40;;;;;;;;;;6160479;28;20410;-87
2022/08/25 13:47:37;;;;;;;28.45;6.03;;;;;;;;;;6143227;28;20023;-88
2022/08/25 13:50:39;;;;;;;28.92;5.90;;;;;;;;;;6159860;28;20056;-88
2022/08/25 13:53:39;;;;;;;16.33;3.95;;;;;;;;;;6158619;28;20027;-88
2022/08/25 13:56:40;;;;;;;19.87;4.63;;;;;;;;;;6139960;28;20042;-88
2022/08/25 13:59:41;;;;;;;18.52;5.13;;;;;;;;;;6144590;28;20265;-88
2022/08/25 14:02:44;;;;;;;14.93;4.97;;;;;;;;;;6159554;28;20497;-88
2022/08/25 14:05:45;;;;;;;25.98;4.15;;;;;;;;;;6164196;28;20433;-87
2022/08/25 14:08:46;;;;;;;19.63;4.37;;;;;;;;;;6168697;28;20025;-87
2022/08/25 14:11:54;;;;;;;22.10;5.43;;;;;;;;;;6172707;28;20834;-88
2022/08/25 14:15:03;;;;;;;20.17;4.38;;;;;;;;;;6151485;28;20121;-87
2022/08/25 14:18:03;;;;;;;23.27;5.18;;;;;;;;;;6163070;28;20399;-87
2022/08/25 14:21:08;;;;;;;15.33;4.80;;;;;;;;;;6154363;28;20057;-87
2022/08/25 14:24:08;;;;;;;18.50;4.30;;;;;;;;;;6146914;28;20109;-87
2022/08/25 14:27:09;;;;;;;21.80;5.68;;;;;;;;;;6165354;28;20026;-87
2022/08/25 14:30:10;;;;;;;20.70;4.87;;;;;;;;;;6154286;28;20101;-87
2022/08/25 14:33:11;;;;;;;22.73;4.22;;;;;;;;;;6171417;28;20027;-87
2022/08/25 14:36:12;;;;;;;15.90;3.65;;;;;;;;;;6154566;28;20497;-87
2022/08/25 14:39:13;;;;;;;20.60;4.05;;;;;;;;;;6171759;28;20403;-87
2022/08/25 14:42:14;;;;;;;21.55;4.68;;;;;;;;;;6163893;28;20027;-87
2022/08/25 14:45:15;;;;;;;16.17;4.35;;;;;;;;;;6158305;28;20018;-87
2022/08/25 14:48:20;;;;;;;18.88;4.57;;;;;;;;;;6139983;28;20015;-87
2022/08/25 14:51:22;;;;;;;19.08;4.70;;;;;;;;;;6146452;28;20387;-87
2022/08/25 14:54:24;;;;;;;16.42;4.28;;;;;;;;;;6143246;28;20050;-87
2022/08/25 14:57:25;;;;;;;16.08;4.20;;;;;;;;;;6141095;28;20030;-87
2022/08/25 15:00:25;;;;;;;16.40;3.80;;;;;;;;;;6141017;28;20019;-87
2022/08/25 15:03:30;;;;;;;18.87;4.43;;;;;;;;;;6140243;28;20018;-87
2022/08/25 15:06:30;;;;;;;24.33;4.88;;;;;;;;;;6145651;28;20026;-87
2022/08/25 15:09:30;;;;;;;17.80;4.07;;;;;;;;;;6161597;28;20051;-87
2022/08/25 15:12:30;;;;;;;25.10;5.13;;;;;;;;;;6159076;28;20110;-87
2022/08/25 15:15:31;;;;;;;22.45;4.97;;;;;;;;;;6158640;28;20030;-87
2022/08/25 15:18:31;;;;;;;23.75;4.65;;;;;;;;;;6155371;28;20071;-86
2022/08/25 15:21:32;;;;;;;18.53;3.77;;;;;;;;;;6157646;28;20104;-86
2022/08/25 15:24:32;;;;;;;25.75;5.43;;;;;;;;;;6161068;28;20029;-87
2022/08/25 15:27:32;;;;;;;20.03;4.73;;;;;;;;;;6160963;28;20023;-87
2022/08/25 15:30:33;;;;;;;21.77;4.77;;;;;;;;;;6164224;28;20022;-87
2022/08/25 15:33:34;;;;;;;19.63;4.95;;;;;;;;;;6141672;28;20369;-87
2022/08/25 15:36:34;;;;;;;27.77;5.43;;;;;;;;;;6158041;28;20034;-86
2022/08/25 15:39:35;;;;;;;19.58;5.00;;;;;;;;;;6162366;28;20026;-86
2022/08/25 15:42:36;;;;;;;23.50;5.13;;;;;;;;;;6142813;28;20030;-87
2022/08/25 15:45:37;;;;;;;18.08;5.63;;;;;;;;;;6150464;28;20031;-87
2022/08/25 15:48:37;;;;;;;;;;;;;;;;;;6153382;28;20034;-87
2022/08/25 15:51:37;;;;;;;26.13;5.40;;;;;;;;;;6158627;28;19914;-86
2022/08/25 15:54:37;;;;;;;;;;;;;;;;;;6167493;28;20066;-86
2022/08/25 15:57:38;;;;;;;26.63;5.47;;;;;;;;;;6150570;28;19917;-87
2022/08/25 16:00:38;;;;;;;;;;;;;;;;;;6144304;28;20054;-86
2022/08/25 16:03:38;;;;;;;22.35;5.68;;;;;;;;;;6144915;28;19914;-87
2022/08/25 16:06:38;;;;;;;;;;;;;;;;;;6152365;28;20019;-87
2022/08/25 16:09:39;;;;;;;22.42;5.95;;;;;;;;;;6149933;28;19960;-86
2022/08/25 16:12:39;;;;;;;;;;;;;;;;;;6161890;28;20027;-86
2022/08/25 16:15:44;;;;;;;29.83;5.63;;;;;;;;;;6153688;28;20062;-87
2022/08/25 16:18:45;;;;;;;23.75;7.25;;;;;;;;;;6151369;28;20030;-86
2022/08/25 16:21:45;;;;;;;;;;;;;;;;;;6146620;28;20585;-86
2022/08/25 16:24:45;;;;;;;19.00;5.40;;;;;;;;;;6143329;28;19907;-86
2022/08/25 16:27:45;;;;;;;;;;;;;;;;;;6140435;28;20260;-86
2022/08/25 16:30:47;;;;;;;24.25;5.32;;;;;;;;;;6141803;28;19910;-86
2022/08/25 16:33:47;;;;;;;32.97;7.18;;;;;;;;;;6137603;28;20487;-86
2022/08/25 16:36:47;;;;;;;;;;;;;;;;;;6140250;28;20030;-86
2022/08/25 16:39:51;;;;;;;28.80;6.47;;;;;;;;;;6142909;28;19906;-86
2022/08/25 16:42:52;;;;;;;27.17;4.80;;;;;;;;;;6145358;28;20015;-85
2022/08/25 16:45:56;;;;;;;23.58;6.45;;;;;;;;;;6137697;28;20465;-86
2022/08/25 16:48:59;;;;;;;27.08;5.90;;;;;;;;;;6147556;28;20011;-86
2022/08/25 16:52:02;;;;;;;26.90;5.45;;;;;;;;;;6150301;28;20038;-86
2022/08/25 16:55:14;;;;;;;18.83;5.40;;;;;;;;;;6145159;28;20024;-86
2022/08/25 16:58:14;;;;;;;22.98;5.55;;;;;;;;;;6137863;28;20420;-86
2022/08/25 17:01:15;;;;;;;24.33;6.32;;;;;;;;;;6142217;28;20459;-86
2022/08/25 17:04:15;;;;;;;25.65;6.78;;;;;;;;;;6143438;28;20022;-85
2022/08/25 17:07:15;;;;;;;22.75;5.90;;;;;;;;;;6143261;28;20019;-86
2022/08/25 17:10:16;;;;;;;22.67;4.75;;;;;;;;;;6140581;28;20054;-86
2022/08/25 17:13:16;;;;;;;24.40;5.75;;;;;;;;;;6142082;28;20067;-86
2022/08/25 17:16:17;;;;;;;24.70;5.00;;;;;;;;;;6137906;28;20070;-86
2022/08/25 17:19:17;;;;;;;33.67;6.95;;;;;;;;;;6149190;28;20058;-86
2022/08/25 17:22:17;;;;;;;27.70;6.10;;;;;;;;;;6156065;28;20019;-86
2022/08/25 17:25:18;;;;;;;19.50;6.17;;;;;;;;;;6154291;28;20027;-86
2022/08/25 17:28:18;;;;;;;27.13;5.93;;;;;;;;;;6170469;28;20129;-86
2022/08/25 17:31:19;;;;;;;27.35;6.60;;;;;;;;;;6151022;28;20023;-86
2022/08/25 17:34:19;;;;;;;22.33;6.40;;;;;;;;;;6151169;28;20034;-86
2022/08/25 17:37:20;;;;;;;28.77;6.40;;;;;;;;;;6167097;28;20011;-86
2022/08/25 17:40:21;;;;;;;20.45;6.32;;;;;;;;;;6168895;28;20035;-86
2022/08/25 17:43:21;;;;;;;24.35;6.45;;;;;;;;;;6162496;28;20019;-86
2022/08/25 17:46:22;;;;;;;27.20;6.60;;;;;;;;;;6148396;28;20011;-86
2022/08/25 17:49:22;;;;;;;;;;;;;;;;;;6153417;28;20134;-86
2022/08/25 17:52:23;;;;;;;28.73;7.30;;;;;;;;;;6160908;28;19917;-86
2022/08/25 17:55:23;;;;;;;28.90;7.00;;;;;;;;;;6164555;28;20031;-86
2022/08/25 17:58:23;;;;;;;36.37;7.33;;;;;;;;;;6167323;28;20073;-86
2022/08/25 18:01:29;;;;;;;20.95;6.15;;;;;;;;;;6152638;28;20037;-86
2022/08/25 18:04:29;;;;;;;26.00;6.88;;;;;;;;;;6162893;28;20019;-86
2022/08/25 18:07:29;;;;;;;17.17;6.97;;;;;;;;;;6160221;28;20022;-86
2022/08/25 18:10:32;;;;;;;19.47;7.23;;;;;;;;;;6162757;28;20015;-86
2022/08/25 18:13:32;;;;;;;28.70;7.95;;;;;;;;;;6161440;28;20010;-86
2022/08/25 18:16:32;;;;;;;23.47;6.70;;;;;;;;;;6161130;28;20045;-86
2022/08/25 18:19:32;;;;;;;27.50;8.27;;;;;;;;;;6161786;28;20057;-86